Terminal Aerodrome Forecast
Issued by NWS Blacksburg, VA

Home | Current Version | Previous Version | Text Only | Print | Product List | Glossary On
Versions: 1 2 3 4 5 6 7 8 9 10 11 12 13 14 15 16 17 18 19 20 21 22 23 24 25 26
000
FTUS41 KRNK 251731
TAFLYH
TAF
KLYH 251731Z 2518/2618 VRB03KT P6SM SCT045 BKN250
     FM260100 00000KT P6SM SCT250
     FM260900 00000KT 4SM BR SCT050
     FM261230 05003KT P6SM SCT045=

USA.gov is the U.S. government's official web portal to all federal, state and local government web resources and services.